createdAt,value
2019-05-06T00:01:53.966Z,4.90
2019-05-06T00:04:24.680Z,4.90
2019-05-06T00:06:54.760Z,4.80
2019-05-06T00:09:24.096Z,4.80
2019-05-06T00:11:54.427Z,4.70
2019-05-06T00:14:23.598Z,4.70
2019-05-06T00:16:55.070Z,4.60
2019-05-06T00:19:24.706Z,4.50
2019-05-06T00:21:54.016Z,4.60
2019-05-06T00:24:25.087Z,4.60
2019-05-06T00:26:59.441Z,4.60
2019-05-06T00:29:29.776Z,4.60
2019-05-06T00:31:59.792Z,4.60
2019-05-06T00:34:30.259Z,4.60
2019-05-06T00:36:59.215Z,4.60
2019-05-06T00:39:33.708Z,4.60
2019-05-06T00:42:20.873Z,4.60
2019-05-06T00:44:51.033Z,4.60
2019-05-06T00:47:20.478Z,4.50
2019-05-06T00:49:49.008Z,4.50
2019-05-06T00:52:19.490Z,4.50
2019-05-06T00:54:48.335Z,4.50
2019-05-06T00:57:17.883Z,4.50
2019-05-06T00:59:46.582Z,4.50
2019-05-06T01:02:15.956Z,4.40
2019-05-06T01:04:45.036Z,4.30
2019-05-06T01:07:14.595Z,4.30
2019-05-06T01:09:44.309Z,4.20
2019-05-06T01:12:14.352Z,4.20
2019-05-06T01:14:44.662Z,4.20
2019-05-06T01:17:14.188Z,4.10
2019-05-06T01:19:42.973Z,4.00
2019-05-06T01:22:11.713Z,4.00
2019-05-06T01:24:40.348Z,3.90
2019-05-06T01:27:14.446Z,3.90
2019-05-06T01:29:55.233Z,3.90
2019-05-06T01:32:13.841Z,3.90
2019-05-06T01:34:44.529Z,3.80
2019-05-06T01:37:14.284Z,3.90
2019-05-06T01:39:50.667Z,3.90
2019-05-06T01:42:24.617Z,3.90
2019-05-06T01:44:53.895Z,3.80
2019-05-06T01:47:23.791Z,3.70
2019-05-06T01:49:53.771Z,3.60
2019-05-06T01:52:24.056Z,3.50
2019-05-06T01:54:54.264Z,3.40
2019-05-06T01:57:24.407Z,3.40
2019-05-06T01:59:53.914Z,3.40
2019-05-06T02:02:23.873Z,3.30
2019-05-06T02:04:54.099Z,3.30
2019-05-06T02:07:24.173Z,3.10
2019-05-06T02:09:54.207Z,3.10
2019-05-06T02:12:24.577Z,3.10
2019-05-06T02:14:54.307Z,3.30
2019-05-06T02:17:23.899Z,3.30
2019-05-06T02:19:54.662Z,3.30
2019-05-06T02:22:34.613Z,3.30
2019-05-06T02:25:11.168Z,3.40
2019-05-06T02:27:44.535Z,3.40
2019-05-06T02:30:15.406Z,3.30
2019-05-06T02:32:57.610Z,3.20
2019-05-06T02:35:28.839Z,3.10
2019-05-06T02:37:58.954Z,3.10
2019-05-06T02:40:29.521Z,3.10
2019-05-06T02:42:58.368Z,3.10
2019-05-06T02:45:33.197Z,3.10
2019-05-06T02:48:13.867Z,3.10
2019-05-06T02:50:46.743Z,3.10
2019-05-06T02:53:17.223Z,3.10
2019-05-06T02:55:46.057Z,2.90
2019-05-06T02:58:15.108Z,2.80
2019-05-06T03:00:44.813Z,2.80
2019-05-06T03:03:18.172Z,2.60
2019-05-06T03:05:49.409Z,2.60
2019-05-06T03:08:18.103Z,2.50
2019-05-06T03:10:46.816Z,2.60
2019-05-06T03:13:15.518Z,2.60
2019-05-06T03:15:44.922Z,2.60
2019-05-06T03:18:15.476Z,2.60
2019-05-06T03:20:56.926Z,2.60
2019-05-06T03:23:29.923Z,2.70
2019-05-06T03:25:58.794Z,2.70
2019-05-06T03:28:27.603Z,2.70
2019-05-06T03:30:57.179Z,2.80
2019-05-06T03:33:47.776Z,3.00
2019-05-06T03:36:07.196Z,3.10
2019-05-06T03:38:28.792Z,3.30
2019-05-06T03:40:57.459Z,3.40
2019-05-06T03:43:26.210Z,3.50
2019-05-06T03:46:06.502Z,3.70
2019-05-06T03:48:49.595Z,3.80
2019-05-06T03:51:18.364Z,3.90
2019-05-06T03:53:47.116Z,4.00
2019-05-06T03:56:20.329Z,4.20
2019-05-06T03:58:54.870Z,4.20
2019-05-06T04:01:24.680Z,4.40
2019-05-06T04:03:57.059Z,4.50
2019-05-06T04:06:33.912Z,4.60
2019-05-06T04:09:04.782Z,4.60
2019-05-06T04:11:36.466Z,4.60
2019-05-06T04:14:07.831Z,4.50
2019-05-06T04:16:44.060Z,4.60
2019-05-06T04:19:26.024Z,4.60
2019-05-06T04:21:59.172Z,4.70
2019-05-06T04:24:44.743Z,4.90
2019-05-06T04:27:33.866Z,5.00
2019-05-06T04:30:04.610Z,5.10
2019-05-06T04:32:34.060Z,5.20
2019-05-06T04:35:04.371Z,5.30
2019-05-06T04:37:34.228Z,5.30
2019-05-06T04:40:05.423Z,5.20
2019-05-06T04:42:34.649Z,5.20
2019-05-06T04:45:04.600Z,5.10
2019-05-06T04:47:33.710Z,5.10
2019-05-06T04:50:04.764Z,5.20
2019-05-06T04:52:34.263Z,5.20
2019-05-06T04:55:04.818Z,5.20
2019-05-06T04:57:33.856Z,5.20
2019-05-06T05:00:04.092Z,5.30
2019-05-06T05:02:33.821Z,5.30
2019-05-06T05:05:04.155Z,5.30
2019-05-06T05:07:33.632Z,5.30
2019-05-06T05:10:05.020Z,5.40
2019-05-06T05:12:42.749Z,5.40
2019-05-06T05:15:32.542Z,5.40
2019-05-06T05:18:15.083Z,5.50
2019-05-06T05:20:46.633Z,5.60
2019-05-06T05:23:14.657Z,5.60
2019-05-06T05:25:47.456Z,5.80
2019-05-06T05:28:16.296Z,5.80
2019-05-06T05:30:45.121Z,6.00
2019-05-06T05:33:15.152Z,6.10
2019-05-06T05:35:46.671Z,6.10
2019-05-06T05:38:18.456Z,6.20
2019-05-06T05:40:48.672Z,6.40
2019-05-06T05:43:29.554Z,6.50
2019-05-06T05:45:54.772Z,6.70
2019-05-06T05:48:33.291Z,7.00
2019-05-06T05:51:05.763Z,7.30
2019-05-06T05:53:34.584Z,7.60
2019-05-06T05:56:07.115Z,7.80
2019-05-06T05:58:37.005Z,8.00
2019-05-06T06:01:08.059Z,8.30
2019-05-06T06:03:42.196Z,8.70
2019-05-06T06:06:13.457Z,9.30
2019-05-06T06:08:43.364Z,9.50
2019-05-06T06:11:33.206Z,9.80
2019-05-06T06:14:40.722Z,9.80
2019-05-06T06:17:14.044Z,9.90
2019-05-06T06:19:46.047Z,9.80
2019-05-06T06:22:19.503Z,9.60
2019-05-06T06:24:50.040Z,9.60
2019-05-06T06:27:22.422Z,9.20
2019-05-06T06:30:05.637Z,9.10
2019-05-06T06:32:41.942Z,9.20
2019-05-06T06:35:19.389Z,9.20
2019-05-06T06:37:58.284Z,9.40
2019-05-06T06:40:28.559Z,9.30
2019-05-06T06:43:02.179Z,9.30
2019-05-06T06:45:42.148Z,9.40
2019-05-06T06:48:13.608Z,9.80
2019-05-06T06:50:43.373Z,9.90
2019-05-06T06:53:16.476Z,10.50
2019-05-06T06:55:47.872Z,11.40
2019-05-06T06:58:25.849Z,12.00
2019-05-06T07:01:14.708Z,11.70
2019-05-06T07:03:48.333Z,11.20
2019-05-06T07:06:23.811Z,10.90
2019-05-06T07:08:59.993Z,10.70
2019-05-06T07:11:34.386Z,10.50
2019-05-06T07:14:05.796Z,10.60
2019-05-06T07:16:35.479Z,10.40
2019-05-06T07:19:04.754Z,10.40
2019-05-06T07:21:44.367Z,10.60
2019-05-06T07:24:14.845Z,10.60
2019-05-06T07:26:46.775Z,11.00
2019-05-06T07:29:23.353Z,11.10
2019-05-06T07:31:48.925Z,11.10
2019-05-06T07:34:19.386Z,11.20
2019-05-06T07:36:48.175Z,10.90
2019-05-06T07:39:17.133Z,11.00
2019-05-06T07:41:53.860Z,10.70
2019-05-06T07:44:28.781Z,10.40
2019-05-06T07:47:12.583Z,10.40
2019-05-06T07:49:43.223Z,10.50
2019-05-06T07:52:16.911Z,10.60
2019-05-06T07:54:44.610Z,10.70
2019-05-06T07:57:13.803Z,10.60
2019-05-06T07:59:44.690Z,10.60
2019-05-06T08:02:13.674Z,10.70
2019-05-06T08:04:43.358Z,10.90
2019-05-06T08:07:12.730Z,11.10
2019-05-06T08:09:42.322Z,11.20
2019-05-06T08:12:13.371Z,11.30
2019-05-06T08:14:43.295Z,11.40
2019-05-06T08:17:27.329Z,11.40
2019-05-06T08:19:58.138Z,11.40
2019-05-06T08:22:45.023Z,11.80
2019-05-06T08:25:14.177Z,11.80
2019-05-06T08:27:43.845Z,12.10
2019-05-06T08:30:15.757Z,12.40
2019-05-06T08:32:48.003Z,12.50
2019-05-06T08:35:18.812Z,12.60
2019-05-06T08:37:49.704Z,13.10
2019-05-06T08:40:18.724Z,13.70
2019-05-06T08:42:48.575Z,13.70
2019-05-06T08:45:18.863Z,13.30
2019-05-06T08:47:49.267Z,12.80
2019-05-06T08:50:32.352Z,12.40
2019-05-06T08:53:09.953Z,12.60
2019-05-06T08:55:49.468Z,12.50
2019-05-06T08:58:22.141Z,12.60
2019-05-06T09:00:54.488Z,12.70
2019-05-06T09:03:23.795Z,12.50
2019-05-06T09:05:56.905Z,12.70
2019-05-06T09:08:25.908Z,12.70
2019-05-06T09:10:55.614Z,12.30
2019-05-06T09:13:24.797Z,12.60
2019-05-06T09:15:54.585Z,12.50
2019-05-06T09:18:24.185Z,12.60
2019-05-06T09:20:53.923Z,12.80
2019-05-06T09:23:27.526Z,12.60
2019-05-06T09:25:56.289Z,12.90
2019-05-06T09:28:29.637Z,13.00
2019-05-06T09:31:09.573Z,13.10
2019-05-06T09:33:43.317Z,13.50
2019-05-06T09:36:12.835Z,13.80
2019-05-06T09:38:42.610Z,14.20
2019-05-06T09:41:12.430Z,14.50
2019-05-06T09:43:43.330Z,14.80
2019-05-06T09:46:13.387Z,14.90
2019-05-06T09:49:00.247Z,14.90
2019-05-06T09:51:32.483Z,14.70
2019-05-06T09:54:16.483Z,14.80
2019-05-06T09:57:04.317Z,14.40
2019-05-06T09:59:35.059Z,14.40
2019-05-06T10:02:06.065Z,14.30
2019-05-06T10:04:35.310Z,13.80
2019-05-06T10:07:05.826Z,13.90
2019-05-06T10:09:38.600Z,14.00
2019-05-06T10:12:08.078Z,14.00
2019-05-06T10:14:37.513Z,13.70
2019-05-06T10:17:06.324Z,14.00
2019-05-06T10:19:35.377Z,14.20
2019-05-06T10:22:04.496Z,14.30
2019-05-06T10:24:36.203Z,14.50
2019-05-06T10:27:06.855Z,14.80
2019-05-06T10:29:37.521Z,15.00
2019-05-06T10:32:12.065Z,15.00
2019-05-06T10:34:43.470Z,15.10
2019-05-06T10:37:25.466Z,14.90
2019-05-06T10:40:03.451Z,14.90
2019-05-06T10:42:37.897Z,14.80
2019-05-06T10:45:13.985Z,15.10
2019-05-06T10:47:45.259Z,15.30
2019-05-06T10:50:15.425Z,15.50
2019-05-06T10:52:51.866Z,15.80
2019-05-06T10:55:23.121Z,15.80
2019-05-06T10:57:53.197Z,15.90
2019-05-06T11:00:24.745Z,16.00
2019-05-06T11:03:14.958Z,16.00
2019-05-06T11:05:45.330Z,16.00
2019-05-06T11:08:17.417Z,16.00
2019-05-06T11:10:46.835Z,16.10
2019-05-06T11:13:16.345Z,16.00
2019-05-06T11:15:45.645Z,16.10
2019-05-06T11:18:14.717Z,16.10
2019-05-06T11:20:45.507Z,16.00
2019-05-06T11:23:15.777Z,15.90
2019-05-06T11:25:44.617Z,15.70
2019-05-06T11:28:34.967Z,15.80
2019-05-06T11:31:04.166Z,16.00
2019-05-06T11:33:34.474Z,15.80
2019-05-06T11:36:17.572Z,16.20
2019-05-06T11:38:48.573Z,16.40
2019-05-06T11:41:18.372Z,17.10
2019-05-06T11:43:49.258Z,16.80
2019-05-06T11:46:17.979Z,16.60
2019-05-06T11:48:47.300Z,16.40
2019-05-06T11:51:18.307Z,16.50
2019-05-06T11:53:49.369Z,16.60
2019-05-06T11:56:19.346Z,16.60
2019-05-06T11:58:57.895Z,16.90
2019-05-06T12:01:32.832Z,16.60
2019-05-06T12:04:02.609Z,16.60
2019-05-06T12:06:34.066Z,16.60
2019-05-06T12:09:06.516Z,16.70
2019-05-06T12:11:35.777Z,16.50
2019-05-06T12:14:04.898Z,16.30
2019-05-06T12:16:33.667Z,16.20
2019-05-06T12:19:02.945Z,16.80
2019-05-06T12:21:32.969Z,17.00
2019-05-06T12:24:02.925Z,16.60
2019-05-06T12:26:33.330Z,16.00
2019-05-06T12:29:02.371Z,15.60
2019-05-06T12:31:32.840Z,15.40
2019-05-06T12:34:02.834Z,15.30
2019-05-06T12:36:35.241Z,15.30
2019-05-06T12:39:18.520Z,15.20
2019-05-06T12:42:03.515Z,15.20
2019-05-06T12:44:35.506Z,15.10
2019-05-06T12:47:08.092Z,15.10
2019-05-06T12:49:36.617Z,15.20
2019-05-06T12:52:06.514Z,15.10
2019-05-06T12:54:36.526Z,15.00
2019-05-06T12:57:06.619Z,15.20
2019-05-06T12:59:35.905Z,15.30
2019-05-06T13:02:04.716Z,15.40
2019-05-06T13:04:49.514Z,15.40
2019-05-06T13:07:08.790Z,15.30
2019-05-06T13:09:42.373Z,15.10
2019-05-06T13:12:12.214Z,15.00
2019-05-06T13:14:43.251Z,15.10
2019-05-06T13:17:15.421Z,15.10
2019-05-06T13:19:44.164Z,15.10
2019-05-06T13:22:14.650Z,15.20
2019-05-06T13:24:43.494Z,15.40
2019-05-06T13:27:14.411Z,15.70
2019-05-06T13:29:44.654Z,15.70
2019-05-06T13:32:17.053Z,15.80
2019-05-06T13:34:45.990Z,15.80
2019-05-06T13:37:14.674Z,15.90
2019-05-06T13:39:43.843Z,16.00
2019-05-06T13:42:14.162Z,16.20
2019-05-06T13:44:44.012Z,16.10
2019-05-06T13:47:15.835Z,15.80
2019-05-06T13:49:46.193Z,15.60
2019-05-06T13:52:15.445Z,15.40
2019-05-06T13:54:44.837Z,15.20
2019-05-06T13:57:15.161Z,15.10
2019-05-06T13:59:46.617Z,15.10
2019-05-06T14:02:22.544Z,15.40
2019-05-06T14:04:52.673Z,15.40
2019-05-06T14:07:24.199Z,15.20
2019-05-06T14:09:53.279Z,15.20
2019-05-06T14:12:25.217Z,15.30
2019-05-06T14:14:56.093Z,15.40
2019-05-06T14:17:25.072Z,15.40
2019-05-06T14:19:53.935Z,15.30
2019-05-06T14:22:23.488Z,15.20
2019-05-06T14:24:54.072Z,15.40
2019-05-06T14:27:23.394Z,15.40
2019-05-06T14:29:57.703Z,15.30
2019-05-06T14:32:27.749Z,15.40
2019-05-06T14:34:57.812Z,15.60
2019-05-06T14:37:26.645Z,15.80
2019-05-06T14:40:00.033Z,15.80
2019-05-06T14:42:32.420Z,15.80
2019-05-06T14:45:00.925Z,15.80
2019-05-06T14:47:32.740Z,15.80
2019-05-06T14:50:03.888Z,15.70
2019-05-06T14:52:33.519Z,15.60
2019-05-06T14:55:04.370Z,15.40
2019-05-06T14:57:33.480Z,15.20
2019-05-06T15:00:04.362Z,15.10
2019-05-06T15:02:33.924Z,14.90
2019-05-06T15:05:03.139Z,15.00
2019-05-06T15:07:32.920Z,14.90
2019-05-06T15:10:19.268Z,14.90
2019-05-06T15:12:34.441Z,15.00
2019-05-06T15:15:05.756Z,15.00
2019-05-06T15:17:36.842Z,15.00
2019-05-06T15:20:07.617Z,15.00
2019-05-06T15:22:36.324Z,14.90
2019-05-06T15:25:06.450Z,14.80
2019-05-06T15:27:35.065Z,14.80
2019-05-06T15:30:08.783Z,14.90
2019-05-06T15:32:41.064Z,14.90
2019-05-06T15:35:15.312Z,14.80
2019-05-06T15:37:47.154Z,14.90
2019-05-06T15:40:30.170Z,14.80
2019-05-06T15:42:47.419Z,14.70
2019-05-06T15:45:18.115Z,14.80
2019-05-06T15:47:49.170Z,14.70
2019-05-06T15:50:18.750Z,14.70
2019-05-06T15:52:47.638Z,14.70
2019-05-06T15:55:18.189Z,14.70
2019-05-06T15:57:46.781Z,14.60
2019-05-06T16:00:17.353Z,14.60
2019-05-06T16:02:47.667Z,14.60
2019-05-06T16:05:19.785Z,14.60
2019-05-06T16:07:47.022Z,14.60
2019-05-06T16:10:17.736Z,14.50
2019-05-06T16:12:48.326Z,14.50
2019-05-06T16:15:18.398Z,14.30
2019-05-06T16:17:47.162Z,14.30
2019-05-06T16:20:16.204Z,14.30
2019-05-06T16:22:48.975Z,14.30
2019-05-06T16:25:22.157Z,14.10
2019-05-06T16:27:54.621Z,14.10
2019-05-06T16:30:24.406Z,14.00
2019-05-06T16:32:53.516Z,14.00
2019-05-06T16:35:23.938Z,13.90
2019-05-06T16:37:53.687Z,13.90
2019-05-06T16:40:23.125Z,13.90
2019-05-06T16:42:54.133Z,13.80
2019-05-06T16:45:24.713Z,13.80
2019-05-06T16:47:59.683Z,13.70
2019-05-06T16:50:29.407Z,13.60
2019-05-06T16:52:57.225Z,13.50
2019-05-06T16:55:32.732Z,13.50
2019-05-06T16:58:08.925Z,13.40
2019-05-06T17:00:42.985Z,13.30
2019-05-06T17:03:15.266Z,13.20
2019-05-06T17:06:04.861Z,13.20
2019-05-06T17:08:42.486Z,13.20
2019-05-06T17:11:24.323Z,13.20
2019-05-06T17:13:44.643Z,13.10
2019-05-06T17:16:16.274Z,13.10
2019-05-06T17:18:45.974Z,13.00
2019-05-06T17:21:16.273Z,13.00
2019-05-06T17:23:44.982Z,12.90
2019-05-06T17:26:14.040Z,13.00
2019-05-06T17:28:44.680Z,12.90
2019-05-06T17:31:32.301Z,12.90
2019-05-06T17:34:05.850Z,12.90
2019-05-06T17:36:39.481Z,12.80
2019-05-06T17:39:13.290Z,12.80
2019-05-06T17:41:48.299Z,12.80
2019-05-06T17:44:13.670Z,12.70
2019-05-06T17:46:51.072Z,12.70
2019-05-06T17:49:23.541Z,12.70
2019-05-06T17:52:05.248Z,12.60
2019-05-06T17:54:34.053Z,12.70
2019-05-06T17:57:04.710Z,12.60
2019-05-06T17:59:37.311Z,12.50
2019-05-06T18:02:11.044Z,12.50
2019-05-06T18:04:43.054Z,12.50
2019-05-06T18:07:13.330Z,12.50
2019-05-06T18:09:45.487Z,12.50
2019-05-06T18:12:15.560Z,12.40
2019-05-06T18:14:45.567Z,12.30
2019-05-06T18:17:17.264Z,12.30
2019-05-06T18:19:46.322Z,12.30
2019-05-06T18:22:19.687Z,12.30
2019-05-06T18:24:52.629Z,12.30
2019-05-06T18:27:18.760Z,12.20
2019-05-06T18:29:47.751Z,12.30
2019-05-06T18:32:17.769Z,12.20
2019-05-06T18:34:47.727Z,12.20
2019-05-06T18:37:19.850Z,12.10
2019-05-06T18:39:48.574Z,12.10
2019-05-06T18:42:21.486Z,12.00
2019-05-06T18:44:49.736Z,12.00
2019-05-06T18:47:20.476Z,12.00
2019-05-06T18:49:49.095Z,11.90
2019-05-06T18:52:17.755Z,11.80
2019-05-06T18:54:46.488Z,11.80
2019-05-06T18:57:15.260Z,11.70
2019-05-06T18:59:46.936Z,11.60
2019-05-06T19:02:17.357Z,11.50
2019-05-06T19:04:53.355Z,11.40
2019-05-06T19:07:24.495Z,11.40
2019-05-06T19:09:54.936Z,11.30
2019-05-06T19:12:31.911Z,11.40
2019-05-06T19:14:57.199Z,11.30
2019-05-06T19:17:25.907Z,11.20
2019-05-06T19:19:54.699Z,11.20
2019-05-06T19:22:23.549Z,11.20
2019-05-06T19:24:53.860Z,11.10
2019-05-06T19:27:26.218Z,11.10
2019-05-06T19:29:58.456Z,11.10
2019-05-06T19:32:30.159Z,11.00
2019-05-06T19:34:59.107Z,11.00
2019-05-06T19:37:29.677Z,10.90
2019-05-06T19:39:59.165Z,11.00
2019-05-06T19:42:42.759Z,11.10
2019-05-06T19:45:04.527Z,11.10
2019-05-06T19:47:34.147Z,11.10
2019-05-06T19:50:06.810Z,11.10
2019-05-06T19:52:38.114Z,11.00
2019-05-06T19:55:07.855Z,11.00
2019-05-06T19:57:39.500Z,11.00
2019-05-06T20:00:09.499Z,10.90
2019-05-06T20:02:42.798Z,11.00
2019-05-06T20:05:14.826Z,10.90
2019-05-06T20:07:52.164Z,11.00
2019-05-06T20:10:28.005Z,11.10
2019-05-06T20:13:05.413Z,11.20
2019-05-06T20:15:38.423Z,11.20
2019-05-06T20:18:11.304Z,11.20
2019-05-06T20:20:44.052Z,11.20
2019-05-06T20:23:12.849Z,11.20
2019-05-06T20:25:44.888Z,11.20
2019-05-06T20:28:13.859Z,11.20
2019-05-06T20:30:44.755Z,11.20
2019-05-06T20:33:14.947Z,11.20
2019-05-06T20:35:44.188Z,11.20
2019-05-06T20:38:12.820Z,11.10
2019-05-06T20:40:43.263Z,11.10
2019-05-06T20:43:19.640Z,11.00
2019-05-06T20:45:47.265Z,11.00
2019-05-06T20:48:18.410Z,11.00
2019-05-06T20:50:47.302Z,11.00
2019-05-06T20:53:16.231Z,11.00
2019-05-06T20:55:48.452Z,11.10
2019-05-06T20:58:19.922Z,11.00
2019-05-06T21:00:49.121Z,11.00
2019-05-06T21:03:22.147Z,11.00
2019-05-06T21:05:50.702Z,11.00
2019-05-06T21:08:22.143Z,10.90
2019-05-06T21:10:52.955Z,10.90
2019-05-06T21:13:29.420Z,10.90
2019-05-06T21:15:53.869Z,10.90
2019-05-06T21:18:23.084Z,10.80
2019-05-06T21:20:52.171Z,10.80
2019-05-06T21:23:23.496Z,10.80
2019-05-06T21:25:54.627Z,10.80
2019-05-06T21:28:24.317Z,10.80
2019-05-06T21:30:55.077Z,10.90
2019-05-06T21:33:26.208Z,10.80
2019-05-06T21:35:55.997Z,10.90
2019-05-06T21:38:26.425Z,10.80
2019-05-06T21:40:55.770Z,10.80
2019-05-06T21:43:25.174Z,10.80
2019-05-06T21:45:55.293Z,10.80
2019-05-06T21:48:24.615Z,10.80
2019-05-06T21:50:54.871Z,10.80
2019-05-06T21:53:23.709Z,10.80
2019-05-06T21:55:52.686Z,10.70
2019-05-06T21:58:23.271Z,10.70
2019-05-06T22:00:58.032Z,10.70
2019-05-06T22:03:26.641Z,10.70
2019-05-06T22:06:02.924Z,10.60
2019-05-06T22:08:32.853Z,10.50
2019-05-06T22:11:04.247Z,10.50
2019-05-06T22:13:33.454Z,10.50
2019-05-06T22:16:04.774Z,10.50
2019-05-06T22:18:33.968Z,10.50
2019-05-06T22:21:05.994Z,10.50
2019-05-06T22:23:49.266Z,10.50
2019-05-06T22:26:18.686Z,10.50
2019-05-06T22:28:48.609Z,10.50
2019-05-06T22:31:17.326Z,10.50
2019-05-06T22:33:46.069Z,10.50
2019-05-06T22:36:15.787Z,10.40
2019-05-06T22:38:44.792Z,10.30
2019-05-06T22:41:13.684Z,10.30
2019-05-06T22:43:42.506Z,10.20
2019-05-06T22:46:12.376Z,10.20
2019-05-06T22:48:43.333Z,10.20
2019-05-06T22:51:12.481Z,10.20
2019-05-06T22:53:42.454Z,10.10
2019-05-06T22:56:15.998Z,10.10
2019-05-06T22:58:45.758Z,10.10
2019-05-06T23:01:22.793Z,10.10
2019-05-06T23:03:52.620Z,10.20
2019-05-06T23:06:21.949Z,10.20
2019-05-06T23:08:54.288Z,10.20
2019-05-06T23:11:23.134Z,10.20
2019-05-06T23:13:55.161Z,10.10
2019-05-06T23:16:25.099Z,10.00
2019-05-06T23:18:55.613Z,9.90
2019-05-06T23:21:24.401Z,9.90
2019-05-06T23:23:54.668Z,9.90
2019-05-06T23:26:26.288Z,9.90
2019-05-06T23:28:55.970Z,10.00
2019-05-06T23:31:33.221Z,10.00
2019-05-06T23:34:05.063Z,9.90
2019-05-06T23:36:53.424Z,9.90
2019-05-06T23:40:03.571Z,9.90
2019-05-06T23:43:12.581Z,9.90
2019-05-06T23:46:19.117Z,9.80
2019-05-06T23:49:23.880Z,9.70
2019-05-06T23:52:31.806Z,9.70
2019-05-06T23:55:36.286Z,9.60
2019-05-06T23:58:05.376Z,9.50
